Time;durP1;ratioP1;P1;durP2;ratioP2;P2;SDS_P1;SDS_P2;PMS_P1;PMS_P2;Temp;Humidity;BMP_temperature;BMP_pressure;BME280_temperature;BME280_humidity;BME280_pressure;Samples;Min_cycle;Max_cycle;Signal;HPM_P1;HPM_P2
2022/09/05 00:02:41;;;;;;;1.90;1.80;;;24.70;44.30;;;;;;4855122;29;21019;-52
2022/09/05 00:05:28;;;;;;;2.70;1.87;;;24.70;44.40;;;;;;4883943;29;21053;-53
2022/09/05 00:08:05;;;;;;;2.60;2.40;;;24.70;44.40;;;;;;4871346;29;20537;-52
2022/09/05 00:10:42;;;;;;;2.20;2.10;;;24.70;44.50;;;;;;4872872;29;20525;-52
2022/09/05 00:13:34;;;;;;;2.43;2.23;;;24.70;44.50;;;;;;4885855;29;20913;-52
2022/09/05 00:16:24;;;;;;;1.73;1.63;;;24.70;44.50;;;;;;4885226;29;21005;-52
2022/09/05 00:19:05;;;;;;;3.30;1.90;;;24.70;44.50;;;;;;4858060;29;20836;-52
2022/09/05 00:22:18;;;;;;;2.23;2.00;;;24.70;44.50;;;;;;4872980;29;20496;-53
2022/09/05 00:25:46;;;;;;;1.70;1.60;;;24.70;44.30;;;;;;4858936;29;20539;-52
2022/09/05 00:28:21;;;;;;;2.20;2.00;;;24.70;44.20;;;;;;4890812;29;20853;-52
2022/09/05 00:31:27;;;;;;;2.10;1.90;;;24.70;44.30;;;;;;4868953;29;20471;-54
2022/09/05 00:34:29;;;;;;;4.43;2.20;;;24.70;44.20;;;;;;4871214;29;20470;-52
2022/09/05 00:37:27;;;;;;;1.70;1.60;;;24.70;44.20;;;;;;4874409;29;20899;-52
2022/09/05 00:40:10;;;;;;;2.80;2.00;;;24.70;44.30;;;;;;4886907;29;20960;-52
2022/09/05 00:42:49;;;;;;;7.80;2.20;;;24.60;44.40;;;;;;4867464;29;20474;-52
2022/09/05 00:45:26;;;;;;;3.00;2.17;;;24.70;44.40;;;;;;4877893;29;20838;-52
2022/09/05 00:48:03;;;;;;;2.10;1.90;;;24.60;44.30;;;;;;4875514;29;20488;-53
2022/09/05 00:50:40;;;;;;;2.73;2.20;;;24.60;44.30;;;;;;4855203;29;20520;-51
2022/09/05 00:53:13;;;;;;;1.97;1.73;;;24.70;44.40;;;;;;4884378;29;20824;-53
2022/09/05 00:55:54;;;;;;;1.90;1.77;;;24.60;44.20;;;;;;4872353;29;20529;-52
2022/09/05 00:58:48;;;;;;;2.30;2.10;;;24.70;44.30;;;;;;4883204;29;20517;-52
2022/09/05 01:01:28;;;;;;;1.90;1.80;;;24.70;44.30;;;;;;4880031;29;20488;-52
2022/09/05 01:04:23;;;;;;;2.20;2.00;;;24.60;44.10;;;;;;4866217;29;21053;-54
2022/09/05 01:07:13;;;;;;;2.53;2.33;;;24.60;44.00;;;;;;4864594;29;20471;-52
2022/09/05 01:10:02;;;;;;;2.00;1.90;;;24.60;44.20;;;;;;4869180;29;20443;-52
2022/09/05 01:12:50;;;;;;;2.10;1.70;;;24.60;44.20;;;;;;4859849;29;20490;-53
2022/09/05 01:15:28;;;;;;;2.03;1.93;;;24.60;44.10;;;;;;4860621;29;20495;-52
2022/09/05 01:18:13;;;;;;;2.00;1.80;;;24.60;44.00;;;;;;4883055;29;20806;-51
2022/09/05 01:21:32;;;;;;;3.93;2.00;;;24.60;44.10;;;;;;4854200;29;20483;-52
2022/09/05 01:24:18;;;;;;;2.40;1.87;;;24.60;43.90;;;;;;4838668;29;20467;-52
2022/09/05 01:27:32;;;;;;;2.37;1.80;;;24.60;43.90;;;;;;4884831;29;20467;-53
2022/09/05 01:30:26;;;;;;;2.20;1.97;;;24.60;43.90;;;;;;4880287;29;20482;-52
2022/09/05 01:33:10;;;;;;;2.33;1.90;;;24.60;43.80;;;;;;4865110;29;20444;-54
2022/09/05 01:36:06;;;;;;;1.80;1.70;;;24.60;43.90;;;;;;4865131;29;20519;-51
2022/09/05 01:48:34;;;;;;;1.90;1.80;;;24.60;43.70;;;;;;4877487;29;20446;-52
2022/09/05 01:51:18;;;;;;;1.70;1.60;;;24.50;43.50;;;;;;4876684;29;20482;-52
2022/09/05 01:54:14;;;;;;;3.20;2.20;;;24.50;43.60;;;;;;4885754;29;20557;-52
2022/09/05 01:57:03;;;;;;;2.37;1.97;;;24.50;44.80;;;;;;4874314;29;20999;-53
2022/09/05 01:59:41;;;;;;;2.10;2.00;;;24.50;43.70;;;;;;4867870;29;20471;-52
2022/09/05 02:02:23;;;;;;;1.60;1.50;;;24.50;43.60;;;;;;4866918;29;20547;-52
2022/09/05 02:05:14;;;;;;;2.33;1.60;;;24.50;43.50;;;;;;4870800;29;20491;-53
2022/09/05 02:08:09;;;;;;;2.00;1.80;;;24.50;43.50;;;;;;4870261;29;20471;-54
2022/09/05 02:10:51;;;;;;;2.00;1.80;;;24.50;43.60;;;;;;4882496;29;20886;-52
2022/09/05 02:13:27;;;;;;;2.20;2.00;;;24.50;43.70;;;;;;4857015;29;20990;-54
2022/09/05 02:16:04;;;;;;;1.77;1.67;;;24.50;43.70;;;;;;4878304;29;20478;-52
2022/09/05 02:18:51;;;;;;;2.00;1.90;;;24.50;43.70;;;;;;4862653;29;20447;-54
2022/09/05 02:21:28;;;;;;;1.90;1.80;;;24.50;43.60;;;;;;4862208;29;20482;-52
2022/09/05 02:24:08;;;;;;;2.07;1.83;;;24.50;43.50;;;;;;4876550;29;20527;-52
2022/09/05 02:26:46;;;;;;;2.03;1.93;;;24.50;43.60;;;;;;4863258;29;21223;-52
2022/09/05 02:29:20;;;;;;;2.07;1.97;;;24.50;43.60;;;;;;4868415;29;20991;-52
2022/09/05 02:32:02;;;;;;;2.30;2.10;;;24.50;43.60;;;;;;4859471;29;20471;-52
2022/09/05 02:34:39;;;;;;;1.97;1.80;;;24.50;43.50;;;;;;4859454;29;20474;-53
2022/09/05 02:37:16;;;;;;;1.90;1.80;;;24.50;43.50;;;;;;4861205;29;21050;-53
2022/09/05 02:40:16;;;;;;;1.67;1.57;;;24.50;43.50;;;;;;4859022;29;20542;-51
2022/09/05 02:43:14;;;;;;;1.93;1.83;;;24.50;43.50;;;;;;4868374;29;20459;-52
2022/09/05 02:46:07;;;;;;;1.57;1.47;;;24.50;43.60;;;;;;4869216;29;20435;-52
2022/09/05 02:48:50;;;;;;;2.53;1.80;;;24.50;43.60;;;;;;4859235;29;20536;-52
2022/09/05 02:51:25;;;;;;;2.30;2.10;;;24.40;43.50;;;;;;4871573;29;20448;-55
2022/09/05 02:54:19;;;;;;;2.07;1.70;;;24.50;43.50;;;;;;4854459;29;20551;-52
2022/09/05 02:57:34;;;;;;;2.03;1.83;;;24.40;43.40;;;;;;4866672;29;20995;-52
2022/09/05 03:00:55;;;;;;;1.60;1.50;;;24.40;43.30;;;;;;4877802;29;20868;-52
2022/09/05 03:03:33;;;;;;;3.30;2.00;;;24.40;43.40;;;;;;4878986;29;20548;-52
2022/09/05 03:06:13;;;;;;;2.60;2.40;;;24.40;43.30;;;;;;4875390;29;20467;-52
2022/09/05 03:09:07;;;;;;;2.00;1.90;;;24.40;43.40;;;;;;4867686;29;20449;-53
2022/09/05 03:12:32;;;;;;;2.20;1.97;;;24.40;43.50;;;;;;4858295;29;20475;-53
2022/09/05 03:15:38;;;;;;;1.93;1.83;;;24.40;43.30;;;;;;4841210;29;20574;-53
2022/09/05 03:18:54;;;;;;;2.40;2.20;;;24.40;43.30;;;;;;4876216;29;20522;-52
2022/09/05 03:22:08;;;;;;;2.20;2.00;;;24.40;43.30;;;;;;4832421;29;20963;-53
2022/09/05 03:25:09;;;;;;;1.97;1.87;;;24.40;43.40;;;;;;4870784;29;20791;-51
2022/09/05 03:28:21;;;;;;;2.13;1.70;;;24.40;43.40;;;;;;4860914;29;20487;-51
2022/09/05 03:31:18;;;;;;;1.63;1.53;;;24.40;43.30;;;;;;4877169;29;20455;-52
2022/09/05 03:43:39;;;;;;;2.07;1.73;;;24.30;43.30;;;;;;4870403;29;20411;-52
2022/09/05 03:46:37;;;;;;;1.97;1.73;;;24.30;43.40;;;;;;4866702;29;20503;-52
2022/09/05 03:49:23;;;;;;;1.70;1.60;;;24.30;43.30;;;;;;4847802;29;20443;-53
2022/09/05 03:52:21;;;;;;;1.87;1.77;;;24.30;43.40;;;;;;4868384;29;20570;-55
2022/09/05 03:55:33;;;;;;;2.10;1.90;;;24.30;43.50;;;;;;4853678;29;20459;-52
2022/09/05 03:58:37;;;;;;;1.87;1.77;;;24.30;43.50;;;;;;4860812;29;20475;-52
2022/09/05 04:01:34;;;;;;;1.83;1.50;;;24.30;43.50;;;;;;4854405;29;20471;-52
2022/09/05 04:04:32;;;;;;;2.20;2.00;;;24.30;43.60;;;;;;4867289;29;21078;-52
2022/09/05 04:07:25;;;;;;;2.00;1.90;;;24.30;43.60;;;;;;4853636;29;20539;-52
2022/09/05 04:10:27;;;;;;;1.80;1.70;;;24.30;43.60;;;;;;4859369;29;20714;-52
2022/09/05 04:13:01;;;;;;;1.63;1.53;;;24.30;43.60;;;;;;4864510;29;20547;-53
2022/09/05 04:15:40;;;;;;;2.20;2.10;;;24.30;43.60;;;;;;4861617;29;20504;-53
2022/09/05 04:18:24;;;;;;;2.03;1.87;;;24.30;43.60;;;;;;4874820;29;20990;-52
2022/09/05 04:21:06;;;;;;;2.10;2.00;;;24.30;43.60;;;;;;4858991;29;20554;-52
2022/09/05 04:23:47;;;;;;;1.77;1.67;;;24.20;43.50;;;;;;4882543;29;20557;-52
2022/09/05 04:26:30;;;;;;;1.67;1.57;;;24.30;43.50;;;;;;4852011;29;20475;-53
2022/09/05 04:29:13;;;;;;;2.30;1.67;;;24.20;43.50;;;;;;4880984;29;20443;-52
2022/09/05 04:31:48;;;;;;;2.17;2.07;;;24.20;43.50;;;;;;4874814;29;20499;-55
2022/09/05 04:34:44;;;;;;;1.50;1.40;;;24.20;43.50;;;;;;4852333;29;21002;-52
2022/09/05 04:37:32;;;;;;;1.97;1.87;;;24.20;43.50;;;;;;4867741;29;20511;-52
2022/09/05 04:40:39;;;;;;;2.00;1.80;;;24.20;43.30;;;;;;4841723;29;20810;-52
2022/09/05 04:43:13;;;;;;;2.03;1.93;;;24.20;43.20;;;;;;4882130;29;20460;-52
2022/09/05 04:45:45;;;;;;;2.20;2.00;;;24.20;43.30;;;;;;4861275;29;20557;-52
2022/09/05 04:48:19;;;;;;;2.90;1.70;;;24.20;43.40;;;;;;4853333;29;20850;-52
2022/09/05 04:51:03;;;;;;;2.13;1.70;;;24.20;43.40;;;;;;4853011;29;20450;-52
2022/09/05 04:54:11;;;;;;;1.87;1.77;;;24.20;43.50;;;;;;4874567;29;20595;-54
2022/09/05 04:56:44;;;;;;;1.60;1.50;;;24.20;43.40;;;;;;4852416;29;20488;-52
2022/09/05 04:59:19;;;;;;;1.83;1.73;;;24.10;43.20;;;;;;4865792;29;20455;-53
2022/09/05 05:02:19;;;;;;;1.83;1.70;;;24.10;43.30;;;;;;4885786;29;20475;-51
2022/09/05 05:05:16;;;;;;;5.23;2.53;;;24.10;44.50;;;;;;4874525;29;20459;-50
2022/09/05 05:08:15;;;;;;;3.00;1.63;;;24.10;43.30;;;;;;4863950;29;20434;-51
2022/09/05 05:11:11;;;;;;;3.40;1.60;;;24.10;43.30;;;;;;4875082;29;21034;-52
2022/09/05 05:14:06;;;;;;;2.10;1.90;;;24.10;43.30;;;;;;4885993;29;20967;-51
2022/09/05 05:16:58;;;;;;;2.27;2.07;;;24.10;43.30;;;;;;4862816;29;20510;-51
2022/09/05 05:19:51;;;;;;;2.20;1.60;;;24.10;43.40;;;;;;4846886;29;20455;-52
2022/09/05 05:22:50;;;;;;;4.20;2.20;;;24.10;43.40;;;;;;4878997;29;20462;-52
2022/09/05 05:25:20;;;;;;;2.30;2.10;;;24.10;43.40;;;;;;4876885;29;20590;-51
2022/09/05 05:28:00;;;;;;;2.57;2.07;;;24.10;43.40;;;;;;4863552;29;20804;-51
2022/09/05 05:30:42;;;;;;;2.87;1.80;;;24.10;43.30;;;;;;4879832;29;20459;-53
2022/09/05 05:33:22;;;;;;;2.90;2.23;;;24.10;43.40;;;;;;4877898;29;20526;-52
2022/09/05 05:35:54;;;;;;;1.50;1.40;;;24.10;43.40;;;;;;4864430;29;20527;-51
2022/09/05 05:38:32;;;;;;;2.37;2.17;;;24.00;43.20;;;;;;4886615;29;20479;-51
2022/09/05 05:41:13;;;;;;;1.77;1.67;;;24.10;43.30;;;;;;4881579;29;20919;-52
2022/09/05 05:43:44;;;;;;;3.43;2.23;;;24.10;43.30;;;;;;4863051;29;20455;-51
2022/09/05 05:46:23;;;;;;;1.70;1.60;;;24.10;43.50;;;;;;4869866;29;20451;-51
2022/09/05 05:48:55;;;;;;;2.10;2.00;;;24.10;43.50;;;;;;4878074;29;20447;-51
2022/09/05 05:51:39;;;;;;;1.90;1.80;;;24.00;43.30;;;;;;4864790;29;20510;-51
2022/09/05 05:54:33;;;;;;;3.13;1.90;;;24.00;43.30;;;;;;4867577;29;20843;-50
2022/09/05 05:57:35;;;;;;;1.90;1.80;;;24.00;43.30;;;;;;4886651;29;20470;-51
2022/09/05 06:00:17;;;;;;;2.30;1.70;;;24.00;43.40;;;;;;4859842;29;20539;-52
2022/09/05 06:03:40;;;;;;;3.10;1.80;;;24.00;43.20;;;;;;4879483;29;20855;-52
2022/09/05 06:06:21;;;;;;;2.50;1.87;;;24.00;43.20;;;;;;4881933;29;20998;-51
2022/09/05 06:09:23;;;;;;;2.20;1.97;;;24.00;43.30;;;;;;4880600;29;20519;-51
2022/09/05 06:13:00;;;;;;;1.80;1.70;;;23.90;43.20;;;;;;4861631;29;20481;-51
2022/09/05 06:16:40;;;;;;;2.00;1.90;;;24.00;43.20;;;;;;4859757;29;20494;-52
2022/09/05 06:19:44;;;;;;;2.13;1.93;;;23.90;43.10;;;;;;4869638;29;20491;-51
2022/09/05 06:22:58;;;;;;;2.07;1.87;;;23.90;43.00;;;;;;4874997;29;20469;-51
2022/09/05 06:26:08;;;;;;;2.00;1.80;;;23.90;42.80;;;;;;4855932;29;20566;-52
2022/09/05 06:28:50;;;;;;;1.80;1.70;;;23.90;43.00;;;;;;4857993;29;20435;-51
2022/09/05 06:31:41;;;;;;;1.60;1.50;;;23.90;43.00;;;;;;4871670;29;20486;-52
2022/09/05 06:34:27;;;;;;;2.77;2.03;;;23.90;43.20;;;;;;4873473;29;21070;-52
2022/09/05 06:37:13;;;;;;;1.80;1.60;;;23.90;43.00;;;;;;4862607;29;20478;-52
2022/09/05 06:40:04;;;;;;;2.07;1.87;;;23.90;43.20;;;;;;4864244;29;20507;-52
2022/09/05 06:42:50;;;;;;;3.50;1.80;;;23.90;43.20;;;;;;4873227;29;21026;-51
2022/09/05 06:45:34;;;;;;;2.33;2.10;;;23.90;43.20;;;;;;4877758;29;20786;-51
2022/09/05 06:48:17;;;;;;;3.20;2.23;;;23.90;44.40;;;;;;4876364;29;20545;-52
2022/09/05 06:51:28;;;;;;;2.00;1.90;;;23.90;43.20;;;;;;4879868;29;20478;-51
2022/09/05 06:54:19;;;;;;;2.40;2.13;;;23.90;43.20;;;;;;4878033;29;20477;-50
2022/09/05 06:57:13;;;;;;;2.30;2.10;;;23.90;42.70;;;;;;4867164;29;20560;-52
2022/09/05 07:00:07;;;;;;;2.47;2.20;;;23.90;42.80;;;;;;4887555;29;20494;-51
2022/09/05 07:03:10;;;;;;;3.27;1.97;;;23.90;42.90;;;;;;4881779;29;20460;-53
2022/09/05 07:05:51;;;;;;;1.93;1.83;;;23.90;42.90;;;;;;4881105;29;20851;-52
2022/09/05 07:08:29;;;;;;;2.33;1.90;;;23.90;43.00;;;;;;4868273;29;20534;-50
2022/09/05 07:11:13;;;;;;;2.57;2.27;;;23.90;43.00;;;;;;4875602;29;21027;-52
2022/09/05 07:13:59;;;;;;;2.83;2.63;;;23.90;42.90;;;;;;4873512;29;20601;-53
2022/09/05 07:16:40;;;;;;;1.63;1.53;;;23.90;43.10;;;;;;4882441;29;20501;-53
2022/09/05 07:19:26;;;;;;;2.73;2.53;;;23.90;43.00;;;;;;4898624;29;20458;-53
2022/09/05 07:22:12;;;;;;;2.43;2.23;;;23.90;43.00;;;;;;4898269;29;20466;-53
2022/09/05 07:25:06;;;;;;;2.53;2.07;;;23.90;43.00;;;;;;4884159;29;20535;-52
2022/09/05 07:27:39;;;;;;;2.17;1.97;;;23.90;43.00;;;;;;4885069;29;20479;-53
2022/09/05 07:30:33;;;;;;;3.30;1.83;;;23.90;43.10;;;;;;4862476;29;20892;-52
2022/09/05 07:33:04;;;;;;;2.33;2.13;;;23.90;43.00;;;;;;4870934;29;20786;-52
2022/09/05 07:35:35;;;;;;;2.30;2.10;;;23.90;43.00;;;;;;4854550;29;20573;-51
2022/09/05 07:38:17;;;;;;;2.23;1.80;;;23.90;43.10;;;;;;4879239;29;20471;-52
2022/09/05 07:40:52;;;;;;;2.13;2.03;;;23.90;43.20;;;;;;4866250;29;20874;-52
2022/09/05 07:43:25;;;;;;;2.93;2.10;;;23.90;43.10;;;;;;4861092;29;20438;-52
2022/09/05 07:46:10;;;;;;;2.00;1.80;;;23.80;42.90;;;;;;4867753;29;20485;-52
2022/09/05 07:48:46;;;;;;;2.00;1.90;;;23.90;43.10;;;;;;4872066;29;20443;-52
2022/09/05 07:51:21;;;;;;;2.20;2.00;;;23.90;43.10;;;;;;4875946;29;21010;-52
2022/09/05 07:54:19;;;;;;;2.33;2.13;;;23.90;43.10;;;;;;4859995;29;20511;-52
2022/09/05 07:57:10;;;;;;;2.03;1.90;;;23.90;43.00;;;;;;4876991;29;20478;-51
2022/09/05 08:00:06;;;;;;;2.20;2.00;;;23.90;43.10;;;;;;4863818;29;20851;-52
2022/09/05 08:02:53;;;;;;;1.90;1.80;;;23.90;43.20;;;;;;4860876;29;20464;-52
2022/09/05 08:05:25;;;;;;;3.73;2.40;;;23.90;43.10;;;;;;4858666;29;20862;-51
2022/09/05 08:08:09;;;;;;;2.13;1.40;;;23.90;43.20;;;;;;4868694;29;20522;-52
2022/09/05 08:10:45;;;;;;;2.37;2.17;;;23.90;43.20;;;;;;4859469;29;20971;-52
2022/09/05 08:13:57;;;;;;;2.30;2.10;;;23.90;43.10;;;;;;4883194;29;20451;-51
2022/09/05 08:16:46;;;;;;;3.10;2.00;;;23.90;43.10;;;;;;4859597;29;20475;-51
2022/09/05 08:19:44;;;;;;;1.50;1.40;;;23.90;43.20;;;;;;4867633;29;20515;-52
2022/09/05 08:22:20;;;;;;;4.10;2.00;;;23.90;43.10;;;;;;4853423;29;20475;-51
2022/09/05 08:25:01;;;;;;;3.20;1.67;;;23.90;43.10;;;;;;4873865;29;21981;-52
2022/09/05 08:27:39;;;;;;;2.30;2.10;;;23.90;43.10;;;;;;4881326;29;20867;-52
2022/09/05 08:30:09;;;;;;;2.40;2.20;;;23.90;43.10;;;;;;4876002;29;20526;-52
2022/09/05 08:33:02;;;;;;;2.40;2.20;;;23.90;43.10;;;;;;4862942;29;20554;-52
2022/09/05 08:35:43;;;;;;;2.23;1.90;;;23.90;43.10;;;;;;4878238;29;20478;-51
2022/09/05 08:38:14;;;;;;;1.80;1.60;;;23.90;43.20;;;;;;4877095;29;20546;-52
2022/09/05 08:40:51;;;;;;;1.90;1.80;;;23.90;43.10;;;;;;4853385;29;20931;-52
2022/09/05 08:43:32;;;;;;;2.10;2.00;;;23.90;43.10;;;;;;4879065;29;20462;-53
2022/09/05 08:46:28;;;;;;;2.53;2.10;;;23.90;43.10;;;;;;4865967;29;20472;-52
2022/09/05 08:49:36;;;;;;;1.93;1.83;;;23.90;43.10;;;;;;4874621;29;20440;-52
2022/09/05 08:52:20;;;;;;;2.27;2.03;;;23.90;43.10;;;;;;4877743;29;20534;-51
2022/09/05 08:55:01;;;;;;;4.83;2.30;;;23.90;43.10;;;;;;4857462;29;20562;-53
2022/09/05 08:58:07;;;;;;;2.53;1.77;;;23.90;43.10;;;;;;4859479;29;20462;-52
2022/09/05 09:00:44;;;;;;;3.37;2.33;;;23.90;43.20;;;;;;4872732;29;20907;-52
2022/09/05 09:03:32;;;;;;;2.20;1.87;;;23.90;43.20;;;;;;4868055;29;20443;-51
2022/09/05 09:06:30;;;;;;;2.10;2.00;;;23.90;43.20;;;;;;4874468;29;20479;-52
2022/09/05 09:09:17;;;;;;;2.10;1.90;;;23.90;43.10;;;;;;4870863;29;20576;-51
2022/09/05 09:11:53;;;;;;;1.87;1.73;;;23.90;43.30;;;;;;4864322;29;20986;-52
2022/09/05 09:14:45;;;;;;;2.00;1.90;;;23.90;43.20;;;;;;4877546;29;20488;-53
2022/09/05 09:17:27;;;;;;;2.23;1.90;;;23.90;43.20;;;;;;4865188;29;21079;-52
2022/09/05 09:20:21;;;;;;;1.90;1.80;;;23.90;43.20;;;;;;4876017;29;20494;-53
2022/09/05 09:22:58;;;;;;;1.90;1.80;;;23.90;43.20;;;;;;4876848;29;20475;-52
2022/09/05 09:25:32;;;;;;;2.10;1.83;;;23.90;43.20;;;;;;4871293;29;20943;-52
2022/09/05 09:28:39;;;;;;;1.97;1.87;;;23.90;43.20;;;;;;4875772;29;20534;-51
2022/09/05 09:31:43;;;;;;;2.53;1.73;;;23.90;43.30;;;;;;4865561;29;20456;-52
2022/09/05 09:34:48;;;;;;;1.60;1.50;;;23.90;43.20;;;;;;4870163;29;20472;-52
2022/09/05 09:37:50;;;;;;;1.60;1.40;;;23.90;43.20;;;;;;4862435;29;20482;-51
2022/09/05 09:40:47;;;;;;;2.07;1.87;;;23.90;43.10;;;;;;4866737;29;20485;-53
2022/09/05 09:43:48;;;;;;;1.90;1.80;;;23.90;43.10;;;;;;4845249;29;20461;-53
2022/09/05 09:46:32;;;;;;;2.10;1.80;;;23.90;43.00;;;;;;4861434;29;20557;-53
2022/09/05 09:49:23;;;;;;;2.00;1.80;;;23.90;43.00;;;;;;4886002;29;21058;-52
2022/09/05 09:52:12;;;;;;;1.80;1.70;;;23.90;43.10;;;;;;4878018;29;20478;-52
2022/09/05 09:55:37;;;;;;;2.20;2.10;;;23.90;43.10;;;;;;4864183;29;20577;-52
2022/09/05 09:58:18;;;;;;;1.60;1.50;;;23.90;43.10;;;;;;4870329;29;20455;-52
2022/09/05 10:00:53;;;;;;;2.07;1.70;;;23.90;43.00;;;;;;4868875;29;20534;-53
2022/09/05 10:03:49;;;;;;;1.57;1.47;;;23.90;43.00;;;;;;4874723;29;20440;-52
2022/09/05 10:07:18;;;;;;;1.70;1.60;;;23.90;42.90;;;;;;4878627;29;20550;-52
2022/09/05 10:10:31;;;;;;;1.63;1.53;;;23.90;42.90;;;;;;4859787;29;20977;-53
2022/09/05 10:13:24;;;;;;;2.43;2.23;;;23.90;42.90;;;;;;4856897;29;20963;-53
2022/09/05 10:16:42;;;;;;;1.60;1.50;;;23.90;42.90;;;;;;4869054;29;20518;-52
2022/09/05 10:19:53;;;;;;;1.97;1.77;;;23.90;42.90;;;;;;4822904;29;20505;-52
2022/09/05 10:23:13;;;;;;;2.07;1.77;;;23.90;42.80;;;;;;4874491;29;20557;-53
2022/09/05 10:26:04;;;;;;;6.10;2.17;;;23.90;42.70;;;;;;4860569;29;20450;-52
2022/09/05 10:28:39;;;;;;;1.70;1.60;;;23.90;42.80;;;;;;4875434;29;20534;-50
2022/09/05 10:31:16;;;;;;;1.93;1.83;;;23.90;42.70;;;;;;4878481;29;20467;-52
2022/09/05 10:34:17;;;;;;;1.80;1.50;;;23.90;42.70;;;;;;4874757;29;20478;-52
2022/09/05 10:37:11;;;;;;;2.30;1.60;;;23.90;42.50;;;;;;4862116;29;20470;-52
2022/09/05 10:39:45;;;;;;;2.00;1.90;;;23.90;42.60;;;;;;4868461;29;20474;-52
2022/09/05 10:42:24;;;;;;;1.87;1.77;;;23.90;42.40;;;;;;4869174;29;20490;-52
2022/09/05 10:44:55;;;;;;;1.97;1.87;;;23.90;42.40;;;;;;4852709;29;20507;-52
2022/09/05 10:47:39;;;;;;;1.70;1.53;;;24.00;42.50;;;;;;4866269;29;20552;-52
2022/09/05 10:50:20;;;;;;;1.73;1.63;;;23.90;42.40;;;;;;4865489;29;20475;-53
2022/09/05 10:53:02;;;;;;;1.80;1.70;;;23.90;42.40;;;;;;4881914;29;20535;-53
2022/09/05 10:55:44;;;;;;;3.10;1.70;;;23.90;42.30;;;;;;4866001;29;20470;-52
2022/09/05 10:58:25;;;;;;;1.60;1.50;;;24.00;42.40;;;;;;4882965;29;20450;-52
2022/09/05 11:01:27;;;;;;;1.50;1.40;;;24.00;42.30;;;;;;4874666;29;20528;-52
2022/09/05 11:04:26;;;;;;;2.10;1.67;;;24.00;42.10;;;;;;4866884;29;20570;-52
2022/09/05 11:07:00;;;;;;;2.20;2.00;;;24.00;42.20;;;;;;4867553;29;20463;-52
2022/09/05 11:09:42;;;;;;;1.50;1.40;;;24.00;42.20;;;;;;4864106;29;20447;-52
2022/09/05 11:12:27;;;;;;;1.80;1.50;;;24.00;42.10;;;;;;4871633;29;20467;-52
2022/09/05 11:15:01;;;;;;;1.90;1.70;;;24.00;42.10;;;;;;4878848;29;20455;-52
2022/09/05 11:17:37;;;;;;;1.97;1.87;;;24.00;42.10;;;;;;4861753;29;20986;-52
2022/09/05 11:20:32;;;;;;;1.80;1.70;;;24.00;42.00;;;;;;4871979;29;20483;-56
2022/09/05 11:23:11;;;;;;;1.73;1.60;;;24.00;41.80;;;;;;4860979;29;20460;-52
2022/09/05 11:25:40;;;;;;;2.30;2.10;;;24.00;41.80;;;;;;4860155;29;20455;-52
2022/09/05 11:28:16;;;;;;;1.77;1.67;;;24.00;42.00;;;;;;4878260;29;20439;-53
2022/09/05 11:30:52;;;;;;;1.67;1.47;;;24.00;41.90;;;;;;4861598;29;20478;-52
2022/09/05 11:34:05;;;;;;;1.50;1.30;;;24.00;41.90;;;;;;4867519;29;20538;-52
2022/09/05 11:37:00;;;;;;;2.10;1.90;;;24.00;41.80;;;;;;4869142;29;21037;-52
2022/09/05 11:40:28;;;;;;;1.80;1.63;;;24.00;41.80;;;;;;4862532;29;20470;-52
2022/09/05 11:44:08;;;;;;;1.60;1.50;;;24.00;41.80;;;;;;4888021;29;20458;-52
2022/09/05 11:47:27;;;;;;;1.53;1.40;;;24.10;41.60;;;;;;4825357;29;20494;-53
2022/09/05 11:50:52;;;;;;;1.50;1.40;;;24.10;41.60;;;;;;4836736;29;20457;-53
2022/09/05 11:53:52;;;;;;;1.93;1.83;;;24.10;41.40;;;;;;4885264;29;20501;-53
2022/09/05 11:56:52;;;;;;;1.60;1.50;;;24.10;41.40;;;;;;4866737;29;20730;-53
2022/09/05 12:00:00;;;;;;;2.37;1.73;;;24.10;41.40;;;;;;4884460;29;20438;-51
2022/09/05 12:03:30;;;;;;;1.40;1.30;;;24.00;41.40;;;;;;4873976;29;20519;-52
2022/09/05 12:07:04;;;;;;;1.60;1.50;;;24.10;41.50;;;;;;4860125;29;20587;-52
2022/09/05 12:10:09;;;;;;;1.53;1.43;;;24.10;41.50;;;;;;4848597;29;20880;-51
2022/09/05 12:13:18;;;;;;;1.40;1.27;;;24.10;41.40;;;;;;4867710;29;20451;-52
2022/09/05 12:15:53;;;;;;;2.03;1.57;;;24.10;41.30;;;;;;4868490;29;20450;-52
2022/09/05 12:18:47;;;;;;;4.53;1.60;;;24.10;41.40;;;;;;4870018;29;20459;-52
2022/09/05 12:21:30;;;;;;;1.50;1.40;;;24.10;41.30;;;;;;4869124;29;20483;-51
2022/09/05 12:24:07;;;;;;;2.03;1.93;;;24.10;41.30;;;;;;4875796;29;20499;-52
2022/09/05 12:27:03;;;;;;;1.80;1.57;;;24.10;41.40;;;;;;4875591;29;20527;-52
2022/09/05 12:29:55;;;;;;;1.20;1.10;;;24.10;41.30;;;;;;4862230;29;20532;-52
2022/09/05 12:32:28;;;;;;;1.50;1.40;;;24.10;41.40;;;;;;4861535;29;20478;-52
2022/09/05 12:35:30;;;;;;;1.23;1.13;;;24.10;41.20;;;;;;4855849;29;20478;-52
2022/09/05 12:38:36;;;;;;;1.40;1.30;;;24.10;41.30;;;;;;4871970;29;20450;-51
2022/09/05 12:41:28;;;;;;;1.10;1.00;;;24.10;41.30;;;;;;4874879;29;20557;-52
2022/09/05 12:44:38;;;;;;;1.73;1.50;;;24.10;41.20;;;;;;4879380;29;20560;-52
2022/09/05 12:47:14;;;;;;;1.80;1.47;;;24.20;41.30;;;;;;4855606;29;20480;-52
2022/09/05 12:49:58;;;;;;;1.37;1.27;;;24.20;41.30;;;;;;4875241;29;20488;-52
2022/09/05 12:52:41;;;;;;;1.97;1.27;;;24.10;41.20;;;;;;4860758;29;20574;-52
2022/09/05 12:55:19;;;;;;;1.60;1.50;;;24.20;41.30;;;;;;4863385;29;20481;-52
2022/09/05 12:57:53;;;;;;;1.70;1.43;;;24.20;41.30;;;;;;4876663;29;20558;-51
2022/09/05 13:00:44;;;;;;;1.87;1.33;;;24.20;41.30;;;;;;4872430;29;20493;-52
2022/09/05 13:03:36;;;;;;;1.50;1.40;;;24.20;41.30;;;;;;4879229;29;20458;-52
2022/09/05 13:06:29;;;;;;;2.00;1.23;;;24.20;41.30;;;;;;4867265;29;20544;-52
2022/09/05 13:09:05;;;;;;;1.43;1.33;;;24.20;41.30;;;;;;4878796;29;20453;-52
2022/09/05 13:11:45;;;;;;;1.50;1.40;;;24.20;41.30;;;;;;4860454;29;20832;-52
2022/09/05 13:14:47;;;;;;;1.40;1.30;;;24.20;41.30;;;;;;4864329;29;20469;-52
2022/09/05 13:17:39;;;;;;;1.50;1.40;;;24.20;41.30;;;;;;4872453;29;21010;-51
2022/09/05 13:20:20;;;;;;;1.37;1.27;;;24.20;41.40;;;;;;4877167;29;20538;-51
2022/09/05 13:22:52;;;;;;;1.63;1.53;;;24.20;41.30;;;;;;4884827;29;20478;-51
2022/09/05 13:25:25;;;;;;;2.07;1.53;;;24.20;41.30;;;;;;4889854;29;20476;-52
2022/09/05 13:28:02;;;;;;;1.30;1.07;;;24.20;41.30;;;;;;4882386;29;20881;-51
2022/09/05 13:30:36;;;;;;;1.80;1.60;;;24.30;41.40;;;;;;4863859;29;20466;-52
2022/09/05 13:33:32;;;;;;;2.50;1.37;;;24.30;41.30;;;;;;4878554;29;20454;-52
2022/09/05 13:36:25;;;;;;;1.20;1.20;;;24.30;41.30;;;;;;4887264;29;20958;-51
2022/09/05 13:39:19;;;;;;;1.40;1.30;;;24.30;41.30;;;;;;4866744;29;20449;-52
2022/09/05 13:41:53;;;;;;;1.43;1.33;;;24.30;41.30;;;;;;4874133;29;20480;-51
2022/09/05 13:44:24;;;;;;;1.47;1.30;;;24.30;41.30;;;;;;4886363;29;20565;-51
2022/09/05 13:47:02;;;;;;;1.40;1.30;;;24.30;42.60;;;;;;4887414;29;20478;-52
2022/09/05 13:50:04;;;;;;;2.40;1.60;;;24.30;41.30;;;;;;4861563;29;20479;-52
2022/09/05 13:52:38;;;;;;;1.53;1.43;;;24.30;41.30;;;;;;4878516;29;20519;-51
2022/09/05 13:55:22;;;;;;;1.63;1.53;;;24.40;41.40;;;;;;4884684;29;20471;-52
2022/09/05 13:57:58;;;;;;;1.47;0.90;;;24.40;41.40;;;;;;4889734;29;20484;-52
2022/09/05 14:01:06;;;;;;;1.30;1.20;;;24.30;41.30;;;;;;4870838;29;20439;-51
2022/09/05 14:04:11;;;;;;;1.43;1.33;;;24.40;41.40;;;;;;4885297;29;20482;-51
2022/09/05 14:07:08;;;;;;;1.27;1.17;;;24.40;41.30;;;;;;4877875;29;20473;-52
2022/09/05 14:10:39;;;;;;;0.97;0.97;;;24.40;41.30;;;;;;4867779;29;20451;-52
2022/09/05 14:13:17;;;;;;;1.20;1.10;;;24.40;41.10;;;;;;4859650;29;20472;-52
2022/09/05 14:15:53;;;;;;;1.10;1.00;;;24.40;41.10;;;;;;4864431;29;20438;-51
2022/09/05 14:18:24;;;;;;;1.20;1.10;;;24.50;41.20;;;;;;4880039;29;20503;-52
2022/09/05 14:21:15;;;;;;;1.27;1.17;;;24.40;41.20;;;;;;4864074;29;21025;-52
2022/09/05 14:23:52;;;;;;;1.90;1.30;;;24.40;41.30;;;;;;4864170;29;20475;-52
2022/09/05 14:26:26;;;;;;;1.30;1.20;;;24.50;41.30;;;;;;4874450;29;20486;-52
2022/09/05 14:29:03;;;;;;;1.47;1.37;;;24.40;41.30;;;;;;4863752;29;20451;-52
2022/09/05 14:31:56;;;;;;;1.47;1.00;;;24.50;41.30;;;;;;4861883;29;20467;-51
2022/09/05 14:34:51;;;;;;;1.30;1.20;;;24.50;41.30;;;;;;4887126;29;20467;-52
2022/09/05 14:37:59;;;;;;;1.30;1.20;;;24.50;41.30;;;;;;4880200;29;20907;-52
2022/09/05 14:41:39;;;;;;;1.13;1.07;;;24.50;41.40;;;;;;4871778;29;20461;-52
2022/09/05 14:45:00;;;;;;;1.27;1.20;;;24.50;41.40;;;;;;4892738;29;20470;-52
2022/09/05 14:48:02;;;;;;;1.30;1.20;;;24.50;41.40;;;;;;4846739;29;20474;-51
2022/09/05 14:50:47;;;;;;;1.70;1.03;;;24.50;41.40;;;;;;4874274;29;20503;-52
2022/09/05 14:53:21;;;;;;;1.37;1.27;;;24.50;41.40;;;;;;4875500;29;20888;-51
2022/09/05 14:56:12;;;;;;;1.37;1.27;;;24.50;41.40;;;;;;4866746;29;20903;-52
2022/09/05 14:59:17;;;;;;;1.87;1.57;;;24.50;41.50;;;;;;4864348;29;20466;-51
2022/09/05 15:02:21;;;;;;;1.50;1.40;;;24.50;41.50;;;;;;4861780;29;20491;-52
2022/09/05 15:05:19;;;;;;;1.00;0.90;;;24.60;41.50;;;;;;4880516;29;20465;-52
2022/09/05 15:07:49;;;;;;;1.53;1.17;;;24.60;41.50;;;;;;4886533;29;20554;-52